Aérodrome :
LOGIN :

S'inscrire | Disclaimer

   EN    FR    IT 

 










Légende :    VFR   VFR Marginal   IFR   IFR Intensif   IFR Très Intensif
Visi : 
Plafond : 
>= 8 km
>= 3000ft
5 à 8 km
1000 à 3000 ft
1500m à 5 km
500 à 1000 ft
800 à 1500m
200 à 500 ft
< 800m
< 200 ft
Symboles :   Orages  Brouillard  Fortes neiges  Fortes précipitations  Vent > 20 kt
SIGMETs :   Divers  Orages  Givrage  Turbulence  Onde Orograph.  Cendres Volcan.







- Altitude de l'aérodrome : 63 ft
- Code IATA : BZM


EHWO - Woensdrecht Airbase

DERNIER METAR :
  • 201444Z AUTO 26012KT 230V300 9999 BKN020 OVC048 19/14 Q1013 WHT

METARs EXPIRÉS :
  • 201439Z AUTO 25013KT 230V290 9999 FEW023 SCT027 OVC046 18/13 Q1013 BLU
  • 201425Z AUTO 27010KT 230V310 9999 SCT018 BKN021 BKN026 18/14 Q1012 WHT
  • 201402Z AUTO 29008KT 250V350 9999 BKN023 BKN027 OVC030 19/13 Q1012 WHT
  • 201358Z AUTO 29009KT 240V350 9999 SCT024 BKN028 BKN032 18/13 Q1012 WHT
  • 201348Z AUTO 29008KT 230V320 9999 FEW027 BKN035 BKN042 19/13 Q1012 BLU
  • 201325Z AUTO 30009KT 250V350 9999 SCT034 20/14 Q1012 BLU 29010KT 9999 SCT025
  • 201255Z AUTO 30010KT 230V350 9999 NCD 19/13 Q1012 BLU 29010KT 9999 SCT025
  • 201233Z AUTO 30010KT 240V350 9999 FEW031 19/13 Q1012 BLU 29010KT 9999 SCT025
  • 201225Z AUTO 29010KT 220V360 9999 FEW030 20/14 Q1012 BLU 29010KT 9999 SCT020 TEMPO SCT020CB
  • 201155Z AUTO 29008KT 240V010 9999 FEW017 SCT035 BKN075 19/14 Q1012 BLU 29010KT 9999 SCT020 TEMPO SCT020CB

TAF TAF EHWO
Valide du 20 à 09h jusqu'au 20 à 21h UTC


200815Z 2009/2021 23008KT 9999 FEW016 SCT020
BECMG 2009/2011 28012KT
PROB40
TEMPO 2010/2016 28012G25KT FEW020CB BKN025
BECMG 2018/2021 24006KT
Pas de NOTAMs connus pour ce terrain.



MET'MAP, la Météo Aéronautique d'un coup d'oeil ! - Copyright ORBIFLY Décembre 2007 - Disclaimer

ORBIFLY MET'MAP TEAM :

Programmation & Développement : Alexandra Zaïnal
Conception & Développement : Baudouin d'Aumeries
Co-Programmation & Développement : Marc-Olivier Méhu
Soutien technique & logistique : Manuel Goepfert

Contact : metmap@orbifly.com




SOURCES & CREDITS :

   NOAA